Terminal Aerodrome Forecast
Issued by NWS Pendleton, OR

Home | Current Version | Previous Version | Text Only | Print | Product List | Glossary On
Versions: 1 2 3 4 5 6 7 8 9 10 11 12 13 14 15 16 17 18
382
FTUS46 KPDT 222320
TAFPDT
TAF
KPDT 222320Z 2300/2324 29011KT P6SM VCSH SCT020 BKN050
     FM230300 14004KT P6SM SCT060
     FM230900 12005KT 5SM BR SCT010 BKN100=

USA.gov is the U.S. government's official web portal to all federal, state and local government web resources and services.